Time;durP1;ratioP1;P1;durP2;ratioP2;P2;SDS_P1;SDS_P2;PMS_P1;PMS_P2;Temp;Humidity;BMP_temperature;BMP_pressure;BME280_temperature;BME280_humidity;BME280_pressure;Samples;Min_cycle;Max_cycle;Signal;HPM_P1;HPM_P2
2022/10/27 00:00:08;;;;;;;7.93;3.72;;;;;;;12.91;78.97;100292.59;347448;28;1714;-73
2022/10/27 00:00:20;;;;;;;9.25;3.75;;;;;;;12.92;79.02;100294.34;348317;28;1901;-72
2022/10/27 00:00:33;;;;;;;8.73;3.97;;;;;;;12.91;78.75;100287.38;349480;28;1101;-72
2022/10/27 00:00:46;;;;;;;10.30;4.43;;;;;;;12.89;78.75;100284.81;348763;28;1907;-72
2022/10/27 00:00:58;;;;;;;9.70;4.68;;;;;;;12.89;79.03;100290.03;348583;28;1616;-73
2022/10/27 00:01:10;;;;;;;7.60;4.78;;;;;;;12.87;78.84;100291.00;348009;28;1394;-72
2022/10/27 00:01:22;;;;;;;8.10;4.65;;;;;;;12.90;78.74;100296.13;348857;28;1268;-73
2022/10/27 00:01:34;;;;;;;6.80;3.92;;;;;;;12.93;78.80;100296.03;347108;28;1718;-73
2022/10/27 00:01:46;;;;;;;6.60;3.90;;;;;;;12.93;78.54;100285.59;347558;28;1208;-72
2022/10/27 00:01:58;;;;;;;6.53;3.72;;;;;;;12.96;78.37;100285.50;348020;28;1020;-73
2022/10/27 00:02:11;;;;;;;7.18;3.70;;;;;;;12.98;78.04;100291.53;345906;28;1719;-72
2022/10/27 00:02:23;;;;;;;8.48;3.88;;;;;;;12.99;78.00;100295.81;346288;28;1376;-73
2022/10/27 00:02:35;;;;;;;7.00;3.90;;;;;;;12.98;77.90;100294.97;345647;28;1889;-74
2022/10/27 00:02:47;;;;;;;6.80;3.75;;;;;;;12.99;77.83;100293.22;345805;28;1758;-73
2022/10/27 00:02:59;;;;;;;6.13;3.65;;;;;;;12.97;77.90;100292.41;346460;28;1051;-73
2022/10/27 00:03:13;;;;;;;6.93;3.85;;;;;;;12.96;78.17;100295.94;346283;28;1319;-72
2022/10/27 00:03:27;;;;;;;7.18;4.03;;;;;;;12.94;78.24;100292.53;347339;28;2108;-73
2022/10/27 00:03:44;;;;;;;8.13;4.20;;;;;;;12.93;78.34;100294.25;347130;28;1875;-73
2022/10/27 00:03:56;;;;;;;8.07;4.28;;;;;;;12.90;78.11;100296.13;347482;28;1274;-72
2022/10/27 00:04:07;;;;;;;6.88;4.30;;;;;;;12.89;78.50;100299.63;347964;28;1031;-73
2022/10/27 00:04:19;;;;;;;6.47;4.45;;;;;;;12.88;78.86;100298.78;349288;28;1411;-72
2022/10/27 00:04:31;;;;;;;8.13;4.43;;;;;;;12.88;78.86;100292.72;347172;28;1705;-72
2022/10/27 00:04:43;;;;;;;9.30;4.30;;;;;;;12.90;78.50;100290.91;349296;28;1802;-72
2022/10/27 00:04:55;;;;;;;7.57;4.40;;;;;;;12.91;78.79;100303.88;348931;28;1067;-73
2022/10/27 00:05:07;;;;;;;8.18;4.63;;;;;;;12.91;78.51;100295.22;349461;28;2001;-73
2022/10/27 00:05:21;;;;;;;9.27;4.68;;;;;;;12.90;78.81;100296.97;348392;28;1281;-73
2022/10/27 00:05:33;;;;;;;8.75;4.70;;;;;;;12.91;78.69;100292.59;348374;28;1676;-72
2022/10/27 00:05:46;;;;;;;7.78;4.47;;;;;;;12.90;78.36;100296.97;348598;28;2044;-72
2022/10/27 00:06:03;;;;;;;9.98;4.35;;;;;;;12.91;78.11;100287.38;347766;28;1920;-73
2022/10/27 00:06:15;;;;;;;9.68;4.07;;;;;;;12.91;78.05;100292.59;347822;28;1063;-72
2022/10/27 00:06:27;;;;;;;7.97;4.18;;;;;;;12.93;77.62;100290.81;347257;28;1649;-73
2022/10/27 00:06:39;;;;;;;8.15;4.65;;;;;;;12.92;77.42;100286.50;348807;28;1594;-72
2022/10/27 00:06:51;;;;;;;8.98;4.80;;;;;;;12.94;77.64;100295.13;349127;28;1047;-72
2022/10/27 00:07:03;;;;;;;7.85;4.65;;;;;;;12.95;77.99;100291.59;347842;28;1706;-72
2022/10/27 00:07:15;;;;;;;7.22;4.43;;;;;;;12.96;78.07;100291.56;347594;28;1228;-72
2022/10/27 00:07:27;;;;;;;6.93;4.38;;;;;;;12.96;77.96;100295.94;346172;28;1684;-72
2022/10/27 00:07:39;;;;;;;7.60;4.40;;;;;;;12.95;78.17;100299.44;346770;28;1720;-72
2022/10/27 00:07:51;;;;;;;7.18;4.18;;;;;;;12.95;78.43;100294.22;346297;28;1740;-72
2022/10/27 00:08:04;;;;;;;7.38;4.40;;;;;;;12.93;78.25;100293.41;347073;28;1553;-73
2022/10/27 00:08:18;;;;;;;8.27;4.70;;;;;;;12.91;78.51;100288.22;346760;28;1662;-74
2022/10/27 00:08:30;;;;;;;8.52;4.75;;;;;;;12.90;78.33;100290.91;345697;28;1635;-73
2022/10/27 00:08:42;;;;;;;7.03;4.32;;;;;;;12.90;78.22;100296.13;346126;28;1891;-72
2022/10/27 00:08:54;;;;;;;6.80;4.25;;;;;;;12.89;78.35;100292.66;345009;28;1038;-72
2022/10/27 00:09:06;;;;;;;7.53;4.25;;;;;;;12.90;78.67;100290.91;345145;28;1003;-72
2022/10/27 00:09:18;;;;;;;7.80;4.20;;;;;;;12.89;78.58;100291.81;344504;28;1314;-72
2022/10/27 00:09:30;;;;;;;7.28;4.20;;;;;;;12.89;78.39;100289.19;345746;28;1896;-73
2022/10/27 00:09:42;;;;;;;7.70;4.32;;;;;;;12.90;78.50;100290.91;345974;28;2235;-72
2022/10/27 00:09:54;;;;;;;8.27;4.60;;;;;;;12.87;78.91;100293.59;344770;28;1024;-72
2022/10/27 00:10:06;;;;;;;9.50;4.72;;;;;;;12.84;78.66;100291.09;344692;28;1170;-73
2022/10/27 00:10:18;;;;;;;8.13;4.50;;;;;;;12.84;78.66;100291.97;345152;28;1383;-73
2022/10/27 00:10:30;;;;;;;6.72;4.30;;;;;;;12.77;78.94;100296.50;345796;28;1803;-73
2022/10/27 00:10:43;;;;;;;6.45;4.25;;;;;;;12.79;78.60;100288.63;347441;28;2007;-73
2022/10/27 00:11:01;;;;;;;8.00;4.32;;;;;;;12.75;79.21;100295.69;346944;28;1191;-73
2022/10/27 00:11:13;;;;;;;8.48;4.30;;;;;;;12.77;79.01;100293.88;346784;28;1694;-73
2022/10/27 00:11:25;;;;;;;6.50;4.13;;;;;;;12.81;78.57;100292.03;348834;28;1342;-73
2022/10/27 00:11:37;;;;;;;6.13;3.90;;;;;;;12.83;78.53;100290.25;347939;28;1466;-73
2022/10/27 00:11:49;;;;;;;6.65;4.00;;;;;;;12.86;78.60;100289.28;348378;28;1781;-73
2022/10/27 00:12:01;;;;;;;6.78;3.97;;;;;;;12.88;78.56;100292.72;349717;28;1010;-73
2022/10/27 00:12:13;;;;;;;7.47;4.05;;;;;;;12.88;78.37;100297.94;349036;28;1221;-73
2022/10/27 00:12:25;;;;;;;8.32;4.20;;;;;;;12.89;78.55;100283.97;348763;28;1223;-73
2022/10/27 00:12:37;;;;;;;7.67;4.10;;;;;;;12.90;78.25;100290.91;348700;28;1626;-74
2022/10/27 00:12:49;;;;;;;7.55;4.00;;;;;;;12.91;78.43;100292.59;348920;28;1913;-74
2022/10/27 00:13:05;;;;;;;8.55;4.05;;;;;;;12.92;78.17;100289.13;347739;28;1042;-74
2022/10/27 00:13:17;;;;;;;9.40;4.40;;;;;;;12.92;78.29;100289.97;347235;28;1111;-74
2022/10/27 00:13:29;;;;;;;8.52;4.30;;;;;;;12.94;77.96;100292.53;347015;28;1560;-73
2022/10/27 00:13:42;;;;;;;8.88;4.22;;;;;;;12.94;78.25;100290.75;347647;28;1779;-73
2022/10/27 00:13:54;;;;;;;7.30;3.95;;;;;;;12.94;78.31;100292.53;347516;28;1298;-73
2022/10/27 00:14:06;;;;;;;7.32;3.90;;;;;;;12.89;78.26;100289.19;347221;28;1388;-73
2022/10/27 00:14:18;;;;;;;9.48;4.10;;;;;;;12.88;78.75;100295.34;347325;28;1775;-73
2022/10/27 00:14:30;;;;;;;8.90;4.00;;;;;;;12.88;78.57;100293.56;346968;28;1825;-73
2022/10/27 00:14:41;;;;;;;7.57;4.00;;;;;;;12.89;78.76;100294.41;348026;28;1177;-73
2022/10/27 00:14:53;;;;;;;7.13;4.20;;;;;;;12.91;78.42;100290.00;346519;28;1058;-73
2022/10/27 00:15:06;;;;;;;10.05;4.30;;;;;;;12.93;78.39;100296.03;346314;28;1802;-73
2022/10/27 00:15:18;;;;;;;9.60;4.30;;;;;;;12.93;78.18;100296.03;347124;28;1616;-73
2022/10/27 00:15:30;;;;;;;8.52;4.30;;;;;;;12.94;78.51;100287.31;346761;28;1639;-73
2022/10/27 00:15:42;;;;;;;7.43;4.18;;;;;;;12.94;78.46;100292.53;346737;28;2220;-73
2022/10/27 00:15:59;;;;;;;7.65;4.13;;;;;;;12.95;78.12;100289.00;347235;28;1403;-73
2022/10/27 00:16:14;;;;;;;7.20;4.07;;;;;;;12.96;78.12;100291.56;347630;28;1027;-73
2022/10/27 00:16:27;;;;;;;7.03;3.53;;;;;;;12.96;78.37;100290.72;346297;28;1065;-73
2022/10/27 00:16:40;;;;;;;7.60;3.38;;;;;;;12.96;77.66;100288.09;347373;28;1765;-73
2022/10/27 00:16:53;;;;;;;7.00;3.10;;;;;;;12.96;77.90;100290.72;347274;28;1038;-73
2022/10/27 00:17:05;;;;;;;5.63;2.95;;;;;;;12.95;77.65;100295.06;347295;28;2372;-73
2022/10/27 00:17:17;;;;;;;6.13;3.00;;;;;;;12.93;77.44;100290.81;349309;28;1472;-73
2022/10/27 00:17:30;;;;;;;6.18;2.97;;;;;;;12.92;77.15;100283.91;347963;28;1698;-73
2022/10/27 00:17:42;;;;;;;7.32;3.08;;;;;;;12.93;77.06;100288.19;348675;28;1809;-73
2022/10/27 00:17:54;;;;;;;7.38;3.17;;;;;;;12.90;76.99;100291.75;349087;28;1073;-73
2022/10/27 00:18:10;;;;;;;6.97;3.17;;;;;;;12.88;76.55;100284.91;348482;28;2120;-73
2022/10/27 00:18:22;;;;;;;6.88;2.97;;;;;;;12.86;76.79;100292.75;348844;28;1227;-73
2022/10/27 00:18:34;;;;;;;6.57;2.95;;;;;;;12.85;76.61;100303.25;347934;28;2388;-73
2022/10/27 00:18:46;;;;;;;6.60;3.00;;;;;;;12.82;76.50;100293.75;348241;28;1949;-73
2022/10/27 00:18:58;;;;;;;5.20;3.05;;;;;;;12.79;76.45;100284.25;347211;28;1211;-73
2022/10/27 00:19:10;;;;;;;4.88;2.75;;;;;;;12.81;76.54;100296.41;346159;28;1041;-73
2022/10/27 00:19:24;;;;;;;4.60;2.70;;;;;;;12.78;76.46;100295.59;346346;28;1211;-73
2022/10/27 00:19:36;;;;;;;6.55;3.05;;;;;;;12.77;76.83;100296.50;345631;28;1745;-72
2022/10/27 00:19:47;;;;;;;6.95;3.25;;;;;;;12.74;76.86;100286.19;345115;28;1900;-73
2022/10/27 00:20:00;;;;;;;10.40;6.63;;;;;;;12.75;76.87;100292.25;345305;28;1047;-73
2022/10/27 00:20:12;;;;;;;10.93;7.82;;;;;;;12.76;76.82;100297.41;344492;28;1726;-73
2022/10/27 00:20:24;;;;;;;10.35;6.90;;;;;;;12.75;76.99;100287.88;346137;28;1179;-73
2022/10/27 00:20:37;;;;;;;8.40;5.68;;;;;;;12.75;76.80;100293.09;344136;28;1647;-73
2022/10/27 00:21:09;;;;;;;6.90;4.80;;;;;;;12.75;76.96;100293.09;344790;28;1924;-73
2022/10/27 00:21:21;;;;;;;5.82;4.28;;;;;;;12.76;77.04;100299.19;345988;28;1449;-73
2022/10/27 00:21:33;;;;;;;6.53;4.35;;;;;;;12.76;77.18;100297.41;345406;28;1877;-72
2022/10/27 00:21:46;;;;;;;7.15;4.10;;;;;;;12.77;77.01;100293.03;345304;28;1850;-73
2022/10/27 00:21:58;;;;;;;8.77;3.60;;;;;;;12.78;76.75;100292.16;346225;28;1046;-73
2022/10/27 00:22:10;;;;;;;8.05;3.35;;;;;;;12.75;76.98;100295.69;346863;28;1010;-73
2022/10/27 00:22:22;;;;;;;5.00;3.25;;;;;;;12.73;77.39;100297.50;347772;28;1281;-73
2022/10/27 00:22:36;;;;;;;4.47;3.17;;;;;;;12.74;76.92;100300.97;347989;28;2458;-73
2022/10/27 00:22:49;;;;;;;6.47;3.47;;;;;;;12.70;77.09;100289.78;348060;28;1968;-73
2022/10/27 00:23:01;;;;;;;7.57;4.30;;;;;;;12.68;77.21;100301.16;347606;28;1047;-73
2022/10/27 00:23:13;;;;;;;6.97;4.68;;;;;;;12.68;77.58;100294.19;346274;28;1927;-73
2022/10/27 00:23:25;;;;;;;8.45;4.10;;;;;;;12.69;77.41;100298.50;346965;28;1767;-73
2022/10/27 00:23:37;;;;;;;11.65;4.15;;;;;;;12.70;76.98;100295.00;347591;28;1645;-73
2022/10/27 00:23:50;;;;;;;11.30;3.60;;;;;;;12.70;76.98;100297.59;346942;28;2085;-73
2022/10/27 00:24:02;;;;;;;5.82;3.20;;;;;;;12.70;77.24;100292.38;346268;28;1083;-73
2022/10/27 00:24:14;;;;;;;4.75;2.92;;;;;;;12.72;77.16;100294.97;346237;28;1301;-73
2022/10/27 00:24:26;;;;;;;5.18;2.72;;;;;;;12.71;77.01;100295.84;345968;28;1537;-73
2022/10/27 00:24:38;;;;;;;6.35;2.80;;;;;;;12.68;77.21;100296.81;346008;28;1913;-73
2022/10/27 00:24:50;;;;;;;6.35;2.85;;;;;;;12.65;77.41;100293.44;346574;28;1896;-73
2022/10/27 00:25:03;;;;;;;7.20;3.05;;;;;;;12.59;77.28;100297.91;348420;28;1061;-74
2022/10/27 00:25:15;;;;;;;6.68;3.22;;;;;;;12.55;77.70;100298.06;349423;28;1179;-73
2022/10/27 00:25:26;;;;;;;5.18;3.28;;;;;;;12.54;77.88;100296.38;349465;28;1081;-73
2022/10/27 00:25:38;;;;;;;4.53;3.13;;;;;;;12.48;77.95;100296.56;347350;28;1545;-74
2022/10/27 00:25:54;;;;;;;4.88;3.00;;;;;;;12.49;77.64;100300.84;347418;28;1378;-73
2022/10/27 00:26:10;;;;;;;7.95;3.00;;;;;;;12.49;77.92;100298.25;347439;28;1014;-73
2022/10/27 00:26:22;;;;;;;8.43;3.10;;;;;;;12.46;77.82;100296.59;347132;28;1661;-73
2022/10/27 00:26:34;;;;;;;7.85;3.05;;;;;;;12.47;77.63;100294.84;346817;28;1654;-73
2022/10/27 00:26:46;;;;;;;7.57;3.05;;;;;;;12.43;77.65;100296.69;347003;28;1974;-74
2022/10/27 00:26:58;;;;;;;6.88;3.03;;;;;;;12.46;77.46;100300.97;347312;28;1298;-72
2022/10/27 00:27:10;;;;;;;4.95;3.08;;;;;;;12.44;77.73;100293.19;347553;28;1180;-73
2022/10/27 00:27:22;;;;;;;5.82;2.92;;;;;;;12.45;78.29;100299.25;347221;28;1065;-72
2022/10/27 00:27:34;;;;;;;5.57;2.80;;;;;;;12.47;77.87;100300.06;347414;28;1891;-72
2022/10/27 00:27:46;;;;;;;5.32;2.88;;;;;;;12.47;77.96;100297.44;348555;28;1066;-73
2022/10/27 00:27:58;;;;;;;5.40;3.20;;;;;;;12.47;77.77;100300.91;349016;28;1985;-73
2022/10/27 00:28:10;;;;;;;6.22;3.15;;;;;;;12.50;77.45;100302.59;348330;28;1931;-73
2022/10/27 00:28:23;;;;;;;6.82;2.83;;;;;;;12.51;77.43;100299.06;348876;28;1219;-72
2022/10/27 00:28:40;;;;;;;7.05;2.90;;;;;;;12.52;77.35;100300.78;347754;28;1703;-74
2022/10/27 00:28:52;;;;;;;7.18;3.13;;;;;;;12.52;77.52;100300.78;347556;28;2086;-74
2022/10/27 00:29:04;;;;;;;6.75;3.08;;;;;;;12.51;77.45;100299.06;347681;28;1045;-74
2022/10/27 00:29:16;;;;;;;6.80;2.88;;;;;;;12.51;77.58;100304.28;345946;28;2056;-73
2022/10/27 00:29:28;;;;;;;5.45;2.90;;;;;;;12.51;77.46;100301.66;346923;28;1678;-75
2022/10/27 00:29:40;;;;;;;5.28;3.10;;;;;;;12.48;77.81;100299.16;347076;28;1620;-73
2022/10/27 00:29:52;;;;;;;5.88;3.55;;;;;;;12.47;78.19;100302.66;346132;28;1035;-73
2022/10/27 00:30:04;;;;;;;8.50;3.50;;;;;;;12.47;78.23;100303.50;344942;28;1051;-74
2022/10/27 00:30:16;;;;;;;8.23;3.50;;;;;;;12.45;78.07;100304.47;346001;28;1825;-74
2022/10/27 00:30:28;;;;;;;8.85;3.60;;;;;;;12.48;78.31;100309.59;346229;28;1798;-73
2022/10/27 00:30:40;;;;;;;5.75;3.30;;;;;;;12.50;77.98;100305.19;346475;28;1069;-73
2022/10/27 00:31:10;;;;;;;5.30;3.00;;;;;;;12.52;78.20;100306.00;346743;28;933;-72
2022/10/27 00:31:22;;;;;;;5.78;3.10;;;;;;;12.51;78.47;100306.88;346929;28;1192;-73
2022/10/27 00:31:34;;;;;;;5.75;3.28;;;;;;;12.51;78.29;100304.28;347073;28;1800;-73
2022/10/27 00:31:46;;;;;;;6.20;3.40;;;;;;;12.52;78.45;100303.38;347686;28;1886;-73
2022/10/27 00:31:59;;;;;;;6.07;3.40;;;;;;;12.50;78.32;100313.84;346830;28;1269;-73
2022/10/27 00:32:11;;;;;;;6.00;3.40;;;;;;;12.46;78.46;100309.63;347662;28;1664;-73
2022/10/27 00:32:24;;;;;;;6.55;3.00;;;;;;;12.51;78.51;100306.88;349062;28;1226;-73
2022/10/27 00:32:36;;;;;;;6.53;2.90;;;;;;;12.52;78.11;100304.22;347942;28;1745;-73
2022/10/27 00:32:48;;;;;;;5.90;2.75;;;;;;;12.55;77.88;100300.66;347906;28;1935;-73
2022/10/27 00:33:00;;;;;;;6.68;2.63;;;;;;;12.55;77.86;100305.88;348092;28;1108;-73
2022/10/27 00:33:12;;;;;;;7.45;2.75;;;;;;;12.59;77.58;100307.50;347662;28;1062;-73
2022/10/27 00:33:24;;;;;;;7.32;2.97;;;;;;;12.61;77.46;100307.47;347721;28;1292;-73
2022/10/27 00:33:37;;;;;;;6.15;3.20;;;;;;;12.62;77.56;100311.78;346633;28;1747;-73
2022/10/27 00:33:50;;;;;;;4.82;3.00;;;;;;;12.62;77.10;100306.56;347641;28;1983;-73
2022/10/27 00:34:02;;;;;;;6.88;3.05;;;;;;;12.59;77.42;100304.91;347747;28;1198;-73
2022/10/27 00:34:14;;;;;;;8.43;3.00;;;;;;;12.55;77.33;100303.28;346802;28;1901;-73
2022/10/27 00:34:26;;;;;;;8.82;3.08;;;;;;;12.51;77.91;100305.13;349156;28;972;-73
2022/10/27 00:34:38;;;;;;;7.25;3.20;;;;;;;12.51;77.88;100302.50;347018;28;1209;-73
2022/10/27 00:34:50;;;;;;;6.13;3.40;;;;;;;12.51;78.14;100309.50;347566;28;1580;-73
2022/10/27 00:35:02;;;;;;;5.10;3.25;;;;;;;12.49;77.98;100311.28;347688;28;1149;-73
2022/10/27 00:35:14;;;;;;;5.30;3.28;;;;;;;12.51;78.11;100312.09;347779;28;1217;-73
2022/10/27 00:35:25;;;;;;;4.93;3.03;;;;;;;12.49;78.12;100306.06;347845;28;1066;-73
2022/10/27 00:35:37;;;;;;;4.13;2.83;;;;;;;12.46;78.06;100306.19;347188;28;1607;-73
2022/10/27 00:35:49;;;;;;;4.78;2.90;;;;;;;12.46;78.00;100306.19;347176;28;1980;-73
2022/10/27 00:36:06;;;;;;;4.93;2.85;;;;;;;12.47;77.73;100307.88;347636;28;1027;-73
2022/10/27 00:36:21;;;;;;;5.30;2.90;;;;;;;12.48;77.58;100307.84;348034;28;1391;-73
2022/10/27 00:36:33;;;;;;;6.47;3.05;;;;;;;12.48;77.49;100307.00;348190;28;1723;-73
2022/10/27 00:36:45;;;;;;;6.60;2.90;;;;;;;12.49;77.38;100311.28;349205;28;1804;-73
2022/10/27 00:36:57;;;;;;;4.90;3.08;;;;;;;12.50;77.38;100310.41;348008;28;1044;-73
2022/10/27 00:37:09;;;;;;;5.78;2.90;;;;;;;12.52;77.36;100303.38;347862;28;1071;-73
2022/10/27 00:37:21;;;;;;;8.10;3.10;;;;;;;12.53;77.31;100312.91;348187;28;2191;-73
2022/10/27 00:37:33;;;;;;;9.23;3.22;;;;;;;12.53;77.42;100312.91;349057;28;1789;-73
2022/10/27 00:37:45;;;;;;;8.07;3.25;;;;;;;12.51;77.44;100317.31;347556;28;1207;-73
2022/10/27 00:37:57;;;;;;;7.00;3.08;;;;;;;12.49;77.50;100312.13;347175;28;1635;-73
2022/10/27 00:38:09;;;;;;;6.78;2.97;;;;;;;12.52;77.94;100311.22;346719;28;1566;-73
2022/10/27 00:38:22;;;;;;;5.80;2.75;;;;;;;12.49;78.26;100308.69;346742;28;1340;-73
2022/10/27 00:38:34;;;;;;;4.95;2.80;;;;;;;12.50;78.40;100307.81;346082;28;1810;-73
2022/10/27 00:38:46;;;;;;;6.60;3.08;;;;;;;12.48;78.08;100307.00;347265;28;1985;-73
2022/10/27 00:38:59;;;;;;;7.13;3.20;;;;;;;12.48;78.31;100307.00;347751;28;1290;-73
2022/10/27 00:39:11;;;;;;;7.72;3.38;;;;;;;12.50;78.38;100307.81;347871;28;1073;-73
2022/10/27 00:39:23;;;;;;;5.28;3.17;;;;;;;12.51;78.17;100307.72;347606;28;1187;-73
2022/10/27 00:39:34;;;;;;;5.47;3.22;;;;;;;12.51;78.35;100304.28;346593;28;2253;-73
2022/10/27 00:39:46;;;;;;;5.80;3.20;;;;;;;12.51;78.27;100310.34;346922;28;1944;-73
2022/10/27 00:39:58;;;;;;;6.72;3.33;;;;;;;12.52;77.87;100304.22;347582;28;1047;-73
2022/10/27 00:40:11;;;;;;;5.55;3.08;;;;;;;12.53;77.78;100307.69;347584;28;1150;-73
2022/10/27 00:40:23;;;;;;;5.70;3.20;;;;;;;12.51;77.99;100305.13;347575;28;1203;-73
2022/10/27 00:40:36;;;;;;;6.40;3.15;;;;;;;12.52;77.81;100312.06;347035;28;1744;-73
2022/10/27 00:40:48;;;;;;;7.22;3.25;;;;;;;12.52;77.70;100306.00;347991;28;1922;-73
2022/10/27 00:41:01;;;;;;;5.20;3.08;;;;;;;12.55;77.51;100308.50;348984;28;1022;-73
2022/10/27 00:41:24;;;;;;;3.92;3.15;;;;;;;12.55;77.48;100313.72;349024;28;1090;-73
2022/10/27 00:41:41;;;;;;;5.95;3.30;;;;;;;12.54;77.43;100306.81;347909;28;1762;-74
2022/10/27 00:41:52;;;;;;;9.57;3.15;;;;;;;12.54;77.58;100310.25;348834;28;1181;-73
2022/10/27 00:42:04;;;;;;;10.10;3.25;;;;;;;12.54;77.44;100306.81;349225;28;929;-72
2022/10/27 00:42:16;;;;;;;7.87;3.30;;;;;;;12.54;77.26;100306.81;349427;28;1275;-73
2022/10/27 00:42:28;;;;;;;6.50;3.13;;;;;;;12.52;77.54;100312.06;349144;28;1037;-73
2022/10/27 00:42:40;;;;;;;5.88;2.90;;;;;;;12.53;77.54;100307.69;348853;28;1759;-73
2022/10/27 00:42:52;;;;;;;5.97;3.10;;;;;;;12.54;77.78;100309.41;348719;28;1051;-73
2022/10/27 00:43:26;;;;;;;6.22;3.45;;;;;;;12.51;77.36;100310.34;347609;28;1239;-73
2022/10/27 00:43:38;;;;;;;6.10;2.95;;;;;;;12.53;77.25;100313.75;346384;28;1935;-72
2022/10/27 00:43:50;;;;;;;5.70;2.90;;;;;;;12.56;77.19;100312.81;347547;28;1970;-72
2022/10/27 00:44:30;;;;;;;5.45;3.05;;;;;;;12.57;77.52;100314.53;346479;28;1925;-74
2022/10/27 00:44:46;;;;;;;8.23;3.42;;;;;;;12.58;77.27;100316.25;347546;28;1797;-73
2022/10/27 00:44:58;;;;;;;7.63;3.53;;;;;;;12.56;77.43;100313.69;346422;28;1112;-73
2022/10/27 00:45:10;;;;;;;7.55;3.50;;;;;;;12.57;77.31;100309.31;347859;28;2199;-73
2022/10/27 00:45:22;;;;;;;7.95;3.70;;;;;;;12.56;77.68;100307.59;348809;28;1842;-73
2022/10/27 00:45:34;;;;;;;8.38;3.70;;;;;;;12.57;77.76;100309.31;347774;28;1078;-73
2022/10/27 00:45:46;;;;;;;7.70;3.60;;;;;;;12.59;77.59;100317.94;347559;28;1224;-73
2022/10/27 00:46:10;;;;;;;6.72;3.55;;;;;;;12.56;77.45;100308.47;349814;28;1214;-73
2022/10/27 00:46:44;;;;;;;6.45;3.25;;;;;;;12.56;77.77;100307.59;348930;28;1326;-74
2022/10/27 00:47:00;;;;;;;7.95;3.60;;;;;;;12.59;77.67;100307.50;347585;28;1212;-73
2022/10/27 00:47:19;;;;;;;7.05;3.40;;;;;;;12.57;77.99;100315.38;347908;28;1065;-74
2022/10/27 00:47:34;;;;;;;7.07;3.25;;;;;;;12.55;78.24;100308.50;347654;28;1598;-73
2022/10/27 00:47:47;;;;;;;5.80;3.25;;;;;;;12.52;78.40;100311.22;348696;28;1899;-73
2022/10/27 00:48:00;;;;;;;4.80;3.20;;;;;;;12.49;78.20;100317.34;349051;28;1272;-73
2022/10/27 00:48:11;;;;;;;5.13;3.33;;;;;;;12.48;78.26;100309.59;348078;28;1873;-73
2022/10/27 00:48:25;;;;;;;5.88;3.42;;;;;;;12.46;78.17;100307.03;347898;28;1112;-73
2022/10/27 00:48:37;;;;;;;5.60;3.30;;;;;;;12.47;78.37;100313.09;348578;28;1675;-73
2022/10/27 00:48:54;;;;;;;6.63;3.45;;;;;;;12.47;78.54;100313.09;348915;28;1901;-73
2022/10/27 00:49:09;;;;;;;9.02;3.65;;;;;;;12.49;78.24;100316.50;347476;28;1270;-73
2022/10/27 00:49:26;;;;;;;8.00;3.80;;;;;;;12.48;78.12;100315.66;348385;28;1337;-74
2022/10/27 00:49:44;;;;;;;5.95;3.50;;;;;;;12.50;78.34;100313.00;347495;28;1888;-73
2022/10/27 00:50:09;;;;;;;5.13;3.30;;;;;;;12.51;78.17;100314.72;347629;28;1249;-73
2022/10/27 00:50:24;;;;;;;5.13;3.08;;;;;;;12.54;77.97;100309.41;347045;28;1950;-73
2022/10/27 00:50:36;;;;;;;5.43;3.13;;;;;;;12.55;78.06;100318.94;346512;28;1826;-73
2022/10/27 00:50:48;;;;;;;6.82;3.40;;;;;;;12.54;78.02;100312.88;347343;28;1991;-73
2022/10/27 00:51:02;;;;;;;7.25;3.30;;;;;;;12.56;77.89;100312.81;346542;28;1022;-73
2022/10/27 00:51:17;;;;;;;5.90;3.23;;;;;;;12.57;77.62;100315.38;346926;28;1100;-73
2022/10/27 00:51:30;;;;;;;5.50;3.47;;;;;;;12.59;77.69;100310.09;344635;28;1841;-73
2022/10/27 00:51:49;;;;;;;5.88;3.45;;;;;;;12.60;77.43;100311.84;346223;28;1947;-73
2022/10/27 00:52:16;;;;;;;6.07;3.30;;;;;;;12.57;77.84;100319.72;346108;28;1585;-73
2022/10/27 00:52:47;;;;;;;6.32;3.47;;;;;;;12.56;78.37;100313.69;347588;28;1737;-73
2022/10/27 00:52:59;;;;;;;5.30;3.30;;;;;;;12.59;77.74;100313.56;348422;28;1355;-73
2022/10/27 00:53:11;;;;;;;4.63;3.30;;;;;;;12.59;78.04;100315.31;350905;28;1183;-73
2022/10/27 00:53:23;;;;;;;5.93;3.33;;;;;;;12.58;78.21;100311.88;349494;28;1142;-74
2022/10/27 00:53:35;;;;;;;8.90;3.60;;;;;;;12.57;78.31;100309.31;348206;28;1696;-73
2022/10/27 00:53:48;;;;;;;9.88;3.72;;;;;;;12.58;78.49;100316.25;348384;28;2057;-74
2022/10/27 00:54:00;;;;;;;8.35;3.60;;;;;;;12.57;78.46;100319.72;347658;28;1161;-73
2022/10/27 00:54:14;;;;;;;7.60;3.35;;;;;;;12.58;78.22;100318.84;346626;28;1688;-73
2022/10/27 00:54:30;;;;;;;7.13;3.47;;;;;;;12.54;77.91;100319.84;346005;28;1081;-73
2022/10/27 00:54:43;;;;;;;5.60;3.38;;;;;;;12.53;78.04;100315.50;346737;28;1761;-73
2022/10/27 00:54:59;;;;;;;5.50;3.20;;;;;;;12.55;78.11;100316.31;346367;28;1058;-73
2022/10/27 00:55:17;;;;;;;5.70;3.38;;;;;;;12.57;77.83;100320.59;346453;28;1070;-73
2022/10/27 00:55:35;;;;;;;6.93;3.83;;;;;;;12.61;77.81;100320.50;347387;28;1261;-73
2022/10/27 00:55:47;;;;;;;7.63;3.55;;;;;;;12.62;77.75;100311.78;346864;28;1966;-73
2022/10/27 00:56:00;;;;;;;6.10;3.20;;;;;;;12.62;77.39;100312.63;347969;28;747;-73
2022/10/27 00:56:12;;;;;;;6.05;3.60;;;;;;;12.62;77.34;100317.84;347917;28;1070;-72
2022/10/27 00:56:25;;;;;;;6.72;3.80;;;;;;;12.63;77.30;100314.34;348908;28;1091;-72
2022/10/27 00:56:37;;;;;;;6.35;3.47;;;;;;;12.65;77.11;100317.75;346973;28;1781;-72
2022/10/27 00:56:52;;;;;;;5.80;3.60;;;;;;;12.68;77.01;100320.28;347355;28;1799;-73
2022/10/27 00:57:07;;;;;;;7.88;3.40;;;;;;;12.69;76.83;100319.34;347565;28;1122;-73
2022/10/27 00:57:20;;;;;;;7.53;3.05;;;;;;;12.69;77.27;100316.75;346895;28;2043;-73
2022/10/27 00:57:32;;;;;;;7.43;3.03;;;;;;;12.67;77.02;100321.16;347201;28;1696;-73
2022/10/27 00:57:47;;;;;;;6.22;2.92;;;;;;;12.64;76.96;100316.06;347416;28;1783;-73
2022/10/27 00:58:03;;;;;;;5.35;3.20;;;;;;;12.64;77.19;100313.44;346426;28;1203;-73
2022/10/27 00:58:18;;;;;;;8.23;3.42;;;;;;;12.64;77.66;100316.06;345788;28;2371;-73
2022/10/27 00:58:31;;;;;;;11.40;3.45;;;;;;;12.64;77.43;100313.44;344496;28;2058;-73
2022/10/27 00:58:45;;;;;;;9.40;3.38;;;;;;;12.64;77.39;100317.81;346643;28;1581;-73
2022/10/27 00:58:57;;;;;;;6.70;3.40;;;;;;;12.62;77.37;100317.84;346197;28;1067;-73
2022/10/27 00:59:09;;;;;;;5.13;3.35;;;;;;;12.62;77.39;100317.84;346571;28;1378;-73
2022/10/27 00:59:23;;;;;;;6.38;3.35;;;;;;;12.61;77.35;100316.13;346758;28;1271;-73
2022/10/27 00:59:36;;;;;;;7.45;3.20;;;;;;;12.58;77.63;100313.63;346345;28;1600;-73
2022/10/27 00:59:48;;;;;;;8.85;3.35;;;;;;;12.57;77.57;100312.75;346865;28;1876;-73
2022/10/27 01:00:03;;;;;;;7.40;3.50;;;;;;;12.60;77.69;100314.44;347592;28;1088;-73
2022/10/27 01:00:16;;;;;;;8.10;3.65;;;;;;;12.57;77.95;100310.16;346996;28;1927;-73
2022/10/27 01:00:30;;;;;;;8.18;3.80;;;;;;;12.57;77.73;100314.53;347484;28;1464;-73
2022/10/27 01:00:42;;;;;;;8.68;3.67;;;;;;;12.56;77.77;100318.03;347189;28;1718;-73
2022/10/27 01:00:54;;;;;;;9.63;3.63;;;;;;;12.54;78.35;100314.63;347858;28;1031;-73
2022/10/27 01:01:06;;;;;;;8.90;3.65;;;;;;;12.52;77.91;100313.81;347494;28;1282;-73
2022/10/27 01:01:18;;;;;;;8.27;3.50;;;;;;;12.52;77.71;100316.44;347478;28;1155;-73
2022/10/27 01:01:31;;;;;;;6.93;3.38;;;;;;;12.54;77.85;100314.63;347448;28;1875;-73
2022/10/27 01:01:44;;;;;;;7.15;3.40;;;;;;;12.55;77.74;100321.53;349521;28;2076;-73
2022/10/27 01:01:56;;;;;;;7.30;3.35;;;;;;;12.57;77.65;100317.13;347617;28;1837;-74
2022/10/27 01:02:10;;;;;;;6.70;3.20;;;;;;;12.53;77.49;100313.75;348112;28;757;-74
2022/10/27 01:02:22;;;;;;;5.78;3.30;;;;;;;12.53;77.64;100312.91;347027;28;1326;-74
2022/10/27 01:02:35;;;;;;;5.20;3.28;;;;;;;12.51;77.70;100310.34;347129;28;1622;-74
2022/10/27 01:02:48;;;;;;;6.13;3.45;;;;;;;12.53;77.45;100312.91;346650;28;1945;-74
2022/10/27 01:03:01;;;;;;;6.95;3.55;;;;;;;12.54;77.48;100314.63;347800;28;1078;-74
2022/10/27 01:03:17;;;;;;;7.88;3.53;;;;;;;12.56;77.35;100320.66;347602;28;1114;-73
2022/10/27 01:03:30;;;;;;;7.90;3.40;;;;;;;12.57;77.27;100317.13;347015;28;1582;-73
2022/10/27 01:03:43;;;;;;;7.63;3.35;;;;;;;12.58;77.28;100311.03;347231;28;1314;-73